sensor_id;sensor_type;location;lat;lon;timestamp;pressure;altitude;pressure_sealevel;temperature
79756;BMP280;69239;50.678;12.280;2023-04-23T00:01:16;96882.72;;;15.79
79756;BMP280;69239;50.678;12.280;2023-04-23T00:03:43;96881.97;;;15.82
79756;BMP280;69239;50.678;12.280;2023-04-23T00:06:09;96880.06;;;15.79
79756;BMP280;69239;50.678;12.280;2023-04-23T00:08:41;96872.81;;;15.76
79756;BMP280;69239;50.678;12.280;2023-04-23T00:11:07;96873.63;;;15.80
79756;BMP280;69239;50.678;12.280;2023-04-23T00:13:34;96871.25;;;15.75
79756;BMP280;69239;50.678;12.280;2023-04-23T00:16:00;96874.34;;;15.77
79756;BMP280;69239;50.678;12.280;2023-04-23T00:18:25;96871.25;;;15.75
79756;BMP280;69239;50.678;12.280;2023-04-23T00:20:51;96878.13;;;15.76
79756;BMP280;69239;50.678;12.280;2023-04-23T00:23:16;96867.09;;;15.74
79756;BMP280;69239;50.678;12.280;2023-04-23T00:25:41;96862.91;;;15.73
79756;BMP280;69239;50.678;12.280;2023-04-23T00:28:07;96852.19;;;15.66
79756;BMP280;69239;50.678;12.280;2023-04-23T00:30:32;96856.81;;;15.69
79756;BMP280;69239;50.678;12.280;2023-04-23T00:32:58;96849.16;;;15.64
79756;BMP280;69239;50.678;12.280;2023-04-23T00:35:23;96848.03;;;15.65
79756;BMP280;69239;50.678;12.280;2023-04-23T00:37:48;96843.03;;;15.60
79756;BMP280;69239;50.678;12.280;2023-04-23T00:40:14;96846.88;;;15.62
79756;BMP280;69239;50.678;12.280;2023-04-23T00:42:39;96844.13;;;15.59
79756;BMP280;69239;50.678;12.280;2023-04-23T00:45:06;96839.22;;;15.57
79756;BMP280;69239;50.678;12.280;2023-04-23T00:47:33;96849.06;;;15.57
79756;BMP280;69239;50.678;12.280;2023-04-23T00:49:59;96839.13;;;15.53
79756;BMP280;69239;50.678;12.280;2023-04-23T00:52:25;96846.72;;;15.51
79756;BMP280;69239;50.678;12.280;2023-04-23T00:54:50;96841.00;;;15.49
79756;BMP280;69239;50.678;12.280;2023-04-23T00:57:16;96841.41;;;15.51
79756;BMP280;69239;50.678;12.280;2023-04-23T00:59:42;96827.69;;;15.46
79756;BMP280;69239;50.678;12.280;2023-04-23T01:02:07;96829.16;;;15.43
79756;BMP280;69239;50.678;12.280;2023-04-23T01:04:34;96843.66;;;15.49
79756;BMP280;69239;50.678;12.280;2023-04-23T01:07:00;96826.94;;;15.45
79756;BMP280;69239;50.678;12.280;2023-04-23T01:09:26;96825.41;;;15.44
79756;BMP280;69239;50.678;12.280;2023-04-23T01:11:52;96828.03;;;15.44
79756;BMP280;69239;50.678;12.280;2023-04-23T01:14:17;96818.19;;;15.41
79756;BMP280;69239;50.678;12.280;2023-04-23T01:16:43;96813.16;;;15.36
79756;BMP280;69239;50.678;12.280;2023-04-23T01:19:09;96816.63;;;15.40
79756;BMP280;69239;50.678;12.280;2023-04-23T01:21:36;96814.69;;;15.37
79756;BMP280;69239;50.678;12.280;2023-04-23T01:24:03;96814.66;;;15.34
79756;BMP280;69239;50.678;12.280;2023-04-23T01:26:29;96816.19;;;15.35
79756;BMP280;69239;50.678;12.280;2023-04-23T01:28:54;96815.44;;;15.34
79756;BMP280;69239;50.678;12.280;2023-04-23T01:31:20;96799.72;;;15.26
79756;BMP280;69239;50.678;12.280;2023-04-23T01:33:46;96805.13;;;15.29
79756;BMP280;69239;50.678;12.280;2023-04-23T01:36:12;96793.34;;;15.27
79756;BMP280;69239;50.678;12.280;2023-04-23T01:38:38;96783.75;;;15.18
79756;BMP280;69239;50.678;12.280;2023-04-23T01:41:03;96776.50;;;15.15
79756;BMP280;69239;50.678;12.280;2023-04-23T01:43:30;96797.00;;;15.18
79756;BMP280;69239;50.678;12.280;2023-04-23T01:45:56;96796.19;;;15.14
79756;BMP280;69239;50.678;12.280;2023-04-23T01:48:23;96793.91;;;15.13
79756;BMP280;69239;50.678;12.280;2023-04-23T01:50:49;96796.56;;;15.13
79756;BMP280;69239;50.678;12.280;2023-04-23T01:53:15;96798.00;;;15.10
79756;BMP280;69239;50.678;12.280;2023-04-23T01:55:42;96807.84;;;15.10
79756;BMP280;69239;50.678;12.280;2023-04-23T01:58:08;96794.56;;;15.06
79756;BMP280;69239;50.678;12.280;2023-04-23T02:00:33;96802.84;;;15.05
79756;BMP280;69239;50.678;12.280;2023-04-23T02:02:58;96797.13;;;14.99
79756;BMP280;69239;50.678;12.280;2023-04-23T02:05:24;96796.34;;;14.99
79756;BMP280;69239;50.678;12.280;2023-04-23T02:07:52;96787.56;;;14.95
79756;BMP280;69239;50.678;12.280;2023-04-23T02:10:18;96794.41;;;14.96
79756;BMP280;69239;50.678;12.280;2023-04-23T02:12:45;96790.88;;;14.88
79756;BMP280;69239;50.678;12.280;2023-04-23T02:15:11;96794.22;;;14.85
79756;BMP280;69239;50.678;12.280;2023-04-23T02:17:37;96783.56;;;14.81
79756;BMP280;69239;50.678;12.280;2023-04-23T02:20:05;96791.53;;;14.81
79756;BMP280;69239;50.678;12.280;2023-04-23T02:22:32;96790.34;;;14.79
79756;BMP280;69239;50.678;12.280;2023-04-23T02:24:57;96783.84;;;14.73
79756;BMP280;69239;50.678;12.280;2023-04-23T02:27:24;96791.69;;;14.69
79756;BMP280;69239;50.678;12.280;2023-04-23T02:29:49;96795.09;;;14.66
79756;BMP280;69239;50.678;12.280;2023-04-23T02:32:15;96786.66;;;14.61
79756;BMP280;69239;50.678;12.280;2023-04-23T02:34:41;96787.69;;;14.56
79756;BMP280;69239;50.678;12.280;2023-04-23T02:37:06;96778.94;;;14.52
79756;BMP280;69239;50.678;12.280;2023-04-23T02:39:32;96780.06;;;14.51
79756;BMP280;69239;50.678;12.280;2023-04-23T02:41:58;96791.06;;;14.53
79756;BMP280;69239;50.678;12.280;2023-04-23T02:44:24;96787.56;;;14.49
79756;BMP280;69239;50.678;12.280;2023-04-23T02:46:50;96773.81;;;14.40
79756;BMP280;69239;50.678;12.280;2023-04-23T02:49:16;96785.22;;;14.44
79756;BMP280;69239;50.678;12.280;2023-04-23T02:51:41;96789.75;;;14.43
79756;BMP280;69239;50.678;12.280;2023-04-23T02:54:06;96779.38;;;14.35
79756;BMP280;69239;50.678;12.280;2023-04-23T02:56:32;96790.81;;;14.39
79756;BMP280;69239;50.678;12.280;2023-04-23T02:58:57;96786.56;;;14.34
79756;BMP280;69239;50.678;12.280;2023-04-23T03:01:23;96799.03;;;14.34
79756;BMP280;69239;50.678;12.280;2023-04-23T03:03:48;96791.81;;;14.31
79756;BMP280;69239;50.678;12.280;2023-04-23T03:06:14;96790.28;;;14.30
79756;BMP280;69239;50.678;12.280;2023-04-23T03:08:39;96795.16;;;14.28
79756;BMP280;69239;50.678;12.280;2023-04-23T03:11:05;96800.88;;;14.30
79756;BMP280;69239;50.678;12.280;2023-04-23T03:13:30;96798.25;;;14.30
79756;BMP280;69239;50.678;12.280;2023-04-23T03:15:55;96796.72;;;14.29
79756;BMP280;69239;50.678;12.280;2023-04-23T03:18:21;96794.34;;;14.24
79756;BMP280;69239;50.678;12.280;2023-04-23T03:20:46;96797.03;;;14.27
79756;BMP280;69239;50.678;12.280;2023-04-23T03:23:12;96790.16;;;14.23
79756;BMP280;69239;50.678;12.280;2023-04-23T03:25:37;96790.47;;;14.21
79756;BMP280;69239;50.678;12.280;2023-04-23T03:28:03;96793.47;;;14.19
79756;BMP280;69239;50.678;12.280;2023-04-23T03:30:29;96776.31;;;14.10
79756;BMP280;69239;50.678;12.280;2023-04-23T03:32:55;96790.44;;;14.17
79756;BMP280;69239;50.678;12.280;2023-04-23T03:35:22;96783.19;;;14.14
79756;BMP280;69239;50.678;12.280;2023-04-23T03:37:47;96785.44;;;14.12
79756;BMP280;69239;50.678;12.280;2023-04-23T03:40:12;96789.59;;;14.13
79756;BMP280;69239;50.678;12.280;2023-04-23T03:42:38;96788.44;;;14.11
79756;BMP280;69239;50.678;12.280;2023-04-23T03:45:03;96791.84;;;14.11
79756;BMP280;69239;50.678;12.280;2023-04-23T03:47:29;96791.44;;;14.09
79756;BMP280;69239;50.678;12.280;2023-04-23T03:49:55;96795.94;;;14.09
79756;BMP280;69239;50.678;12.280;2023-04-23T03:52:21;96794.41;;;14.08
79756;BMP280;69239;50.678;12.280;2023-04-23T03:54:46;96787.53;;;14.03
79756;BMP280;69239;50.678;12.280;2023-04-23T03:57:12;96791.28;;;14.02
79756;BMP280;69239;50.678;12.280;2023-04-23T03:59:37;96795.88;;;14.05
79756;BMP280;69239;50.678;12.280;2023-04-23T04:02:03;96796.56;;;14.02
79756;BMP280;69239;50.678;12.280;2023-04-23T04:04:29;96801.03;;;13.98
79756;BMP280;69239;50.678;12.280;2023-04-23T04:06:56;96806.31;;;13.98
79756;BMP280;69239;50.678;12.280;2023-04-23T04:09:22;96804.78;;;13.97
79756;BMP280;69239;50.678;12.280;2023-04-23T04:11:47;96807.09;;;13.99
79756;BMP280;69239;50.678;12.280;2023-04-23T04:14:12;96802.88;;;13.94
79756;BMP280;69239;50.678;12.280;2023-04-23T04:16:38;96792.59;;;13.93
79756;BMP280;69239;50.678;12.280;2023-04-23T04:19:03;96795.59;;;13.91
79756;BMP280;69239;50.678;12.280;2023-04-23T04:21:30;96812.31;;;13.95
79756;BMP280;69239;50.678;12.280;2023-04-23T04:23:56;96799.34;;;13.90
79756;BMP280;69239;50.678;12.280;2023-04-23T04:26:21;96801.34;;;13.93
79756;BMP280;69239;50.678;12.280;2023-04-23T04:28:47;96795.59;;;13.91
79756;BMP280;69239;50.678;12.280;2023-04-23T04:31:13;96804.03;;;13.97
79756;BMP280;69239;50.678;12.280;2023-04-23T04:33:40;96801.72;;;13.95
79756;BMP280;69239;50.678;12.280;2023-04-23T04:36:06;96805.53;;;13.94
79756;BMP280;69239;50.678;12.280;2023-04-23T04:38:34;96807.03;;;13.95
79756;BMP280;69239;50.678;12.280;2023-04-23T04:41:03;96817.34;;;14.00
79756;BMP280;69239;50.678;12.280;2023-04-23T04:43:29;96816.22;;;14.01
79756;BMP280;69239;50.678;12.280;2023-04-23T04:45:54;96820.31;;;13.99
79756;BMP280;69239;50.678;12.280;2023-04-23T04:48:20;96824.56;;;14.03
79756;BMP280;69239;50.678;12.280;2023-04-23T04:50:46;96826.53;;;14.06
79756;BMP280;69239;50.678;12.280;2023-04-23T04:53:11;96830.69;;;14.07
79756;BMP280;69239;50.678;12.280;2023-04-23T04:55:37;96820.13;;;14.07
79756;BMP280;69239;50.678;12.280;2023-04-23T04:58:02;96824.72;;;14.10
79756;BMP280;69239;50.678;12.280;2023-04-23T05:00:28;96833.06;;;14.12
79756;BMP280;69239;50.678;12.280;2023-04-23T05:02:54;96833.16;;;14.16
79756;BMP280;69239;50.678;12.280;2023-04-23T05:05:21;96837.22;;;14.13
79756;BMP280;69239;50.678;12.280;2023-04-23T05:07:47;96836.16;;;14.14
79756;BMP280;69239;50.678;12.280;2023-04-23T05:10:13;96841.84;;;14.16
79756;BMP280;69239;50.678;12.280;2023-04-23T05:12:39;96841.50;;;14.18
79756;BMP280;69239;50.678;12.280;2023-04-23T05:15:09;96844.16;;;14.18
79756;BMP280;69239;50.678;12.280;2023-04-23T05:17:35;96849.03;;;14.16
79756;BMP280;69239;50.678;12.280;2023-04-23T05:20:01;96850.56;;;14.17
79756;BMP280;69239;50.678;12.280;2023-04-23T05:22:26;96856.63;;;14.17
79756;BMP280;69239;50.678;12.280;2023-04-23T05:24:52;96857.38;;;14.18
79756;BMP280;69239;50.678;12.280;2023-04-23T05:27:17;96843.72;;;14.16
79756;BMP280;69239;50.678;12.280;2023-04-23T05:29:42;96849.16;;;14.23
79756;BMP280;69239;50.678;12.280;2023-04-23T05:32:08;96857.59;;;14.29
79756;BMP280;69239;50.678;12.280;2023-04-23T05:34:33;96850.75;;;14.28
79756;BMP280;69239;50.678;12.280;2023-04-23T05:36:59;96859.94;;;14.34
79756;BMP280;69239;50.678;12.280;2023-04-23T05:39:25;96860.78;;;14.38
79756;BMP280;69239;50.678;12.280;2023-04-23T05:41:50;96862.41;;;14.42
79756;BMP280;69239;50.678;12.280;2023-04-23T05:44:15;96858.63;;;14.43
79756;BMP280;69239;50.678;12.280;2023-04-23T05:46:41;96860.91;;;14.45
79756;BMP280;69239;50.678;12.280;2023-04-23T05:49:06;96849.94;;;14.43
79756;BMP280;69239;50.678;12.280;2023-04-23T05:51:31;96851.56;;;14.51
79756;BMP280;69239;50.678;12.280;2023-04-23T05:53:57;96855.34;;;14.50
79756;BMP280;69239;50.678;12.280;2023-04-23T05:56:22;96853.44;;;14.50
79756;BMP280;69239;50.678;12.280;2023-04-23T05:58:47;96851.22;;;14.52
79756;BMP280;69239;50.678;12.280;2023-04-23T06:01:13;96843.63;;;14.51
79756;BMP280;69239;50.678;12.280;2023-04-23T06:03:38;96861.97;;;14.63
79756;BMP280;69239;50.678;12.280;2023-04-23T06:06:06;96865.13;;;14.69
79756;BMP280;69239;50.678;12.280;2023-04-23T06:08:32;96862.94;;;14.74
79756;BMP280;69239;50.678;12.280;2023-04-23T06:10:57;96856.19;;;14.77
79756;BMP280;69239;50.678;12.280;2023-04-23T06:13:23;96859.44;;;14.90
79756;BMP280;69239;50.678;12.280;2023-04-23T06:15:48;96858.75;;;14.96
79756;BMP280;69239;50.678;12.280;2023-04-23T06:18:13;96876.28;;;15.01
79756;BMP280;69239;50.678;12.280;2023-04-23T06:20:39;96855.06;;;15.01
79756;BMP280;69239;50.678;12.280;2023-04-23T06:23:04;96870.38;;;15.11
79756;BMP280;69239;50.678;12.280;2023-04-23T06:25:30;96873.44;;;15.13
79756;BMP280;69239;50.678;12.280;2023-04-23T06:27:55;96867.41;;;15.16
79756;BMP280;69239;50.678;12.280;2023-04-23T06:30:22;96872.00;;;15.19
79756;BMP280;69239;50.678;12.280;2023-04-23T06:32:48;96866.72;;;15.19
79756;BMP280;69239;50.678;12.280;2023-04-23T06:35:13;96878.13;;;15.23
79756;BMP280;69239;50.678;12.280;2023-04-23T06:37:39;96866.03;;;15.26
79756;BMP280;69239;50.678;12.280;2023-04-23T06:40:05;96869.88;;;15.28
79756;BMP280;69239;50.678;12.280;2023-04-23T06:42:30;96873.31;;;15.29
79756;BMP280;69239;50.678;12.280;2023-04-23T06:44:56;96882.81;;;15.33
79756;BMP280;69239;50.678;12.280;2023-04-23T06:47:23;96884.41;;;15.38
79756;BMP280;69239;50.678;12.280;2023-04-23T06:49:48;96877.69;;;15.44
79756;BMP280;69239;50.678;12.280;2023-04-23T06:52:14;96884.97;;;15.50
79756;BMP280;69239;50.678;12.280;2023-04-23T06:54:39;96880.09;;;15.52
79756;BMP280;69239;50.678;12.280;2023-04-23T06:57:04;96878.25;;;15.57
79756;BMP280;69239;50.678;12.280;2023-04-23T06:59:30;96866.59;;;15.65
79756;BMP280;69239;50.678;12.280;2023-04-23T07:01:55;96877.72;;;15.74
79756;BMP280;69239;50.678;12.280;2023-04-23T07:04:21;96859.22;;;15.81
79756;BMP280;69239;50.678;12.280;2023-04-23T07:06:46;96872.16;;;15.86
79756;BMP280;69239;50.678;12.280;2023-04-23T07:09:11;96869.97;;;15.92
79756;BMP280;69239;50.678;12.280;2023-04-23T07:11:37;96865.38;;;15.88
79756;BMP280;69239;50.678;12.280;2023-04-23T07:14:02;96868.50;;;15.94
79756;BMP280;69239;50.678;12.280;2023-04-23T07:16:28;96880.72;;;16.02
79756;BMP280;69239;50.678;12.280;2023-04-23T07:18:57;96886.09;;;16.09
79756;BMP280;69239;50.678;12.280;2023-04-23T07:21:23;96894.97;;;16.20
79756;BMP280;69239;50.678;12.280;2023-04-23T07:23:51;96891.75;;;16.34
79756;BMP280;69239;50.678;12.280;2023-04-23T07:26:17;96894.81;;;16.40
79756;BMP280;69239;50.678;12.280;2023-04-23T07:28:42;96892.56;;;16.42
79756;BMP280;69239;50.678;12.280;2023-04-23T07:31:08;96897.41;;;16.33
79756;BMP280;69239;50.678;12.280;2023-04-23T07:33:33;96893.50;;;16.23
79756;BMP280;69239;50.678;12.280;2023-04-23T07:35:59;96893.00;;;16.14
79756;BMP280;69239;50.678;12.280;2023-04-23T07:38:24;96898.75;;;16.19
79756;BMP280;69239;50.678;12.280;2023-04-23T07:40:49;96897.66;;;16.24
79756;BMP280;69239;50.678;12.280;2023-04-23T07:43:15;96898.41;;;16.24
79756;BMP280;69239;50.678;12.280;2023-04-23T07:45:41;96903.81;;;16.28
79756;BMP280;69239;50.678;12.280;2023-04-23T07:48:06;96911.81;;;16.35
79756;BMP280;69239;50.678;12.280;2023-04-23T07:50:31;96912.22;;;16.34
79756;BMP280;69239;50.678;12.280;2023-04-23T07:52:57;96915.91;;;16.26
79756;BMP280;69239;50.678;12.280;2023-04-23T07:55:22;96910.09;;;16.16
79756;BMP280;69239;50.678;12.280;2023-04-23T07:57:47;96910.44;;;16.11
79756;BMP280;69239;50.678;12.280;2023-04-23T08:00:13;96911.88;;;16.05
79756;BMP280;69239;50.678;12.280;2023-04-23T08:02:39;96912.22;;;16.04
79756;BMP280;69239;50.678;12.280;2023-04-23T08:05:04;96918.63;;;15.99
79756;BMP280;69239;50.678;12.280;2023-04-23T08:07:30;96921.94;;;15.93
79756;BMP280;69239;50.678;12.280;2023-04-23T08:09:56;96920.69;;;15.83
79756;BMP280;69239;50.678;12.280;2023-04-23T08:12:27;96926.59;;;15.73
79756;BMP280;69239;50.678;12.280;2023-04-23T08:14:52;96924.59;;;15.63
79756;BMP280;69239;50.678;12.280;2023-04-23T08:17:18;96939.31;;;15.60
79756;BMP280;69239;50.678;12.280;2023-04-23T08:19:43;96930.53;;;15.56
79756;BMP280;69239;50.678;12.280;2023-04-23T08:22:08;96943.00;;;15.52
79756;BMP280;69239;50.678;12.280;2023-04-23T08:24:35;96929.25;;;15.46
79756;BMP280;69239;50.678;12.280;2023-04-23T08:27:00;96926.50;;;15.39
79756;BMP280;69239;50.678;12.280;2023-04-23T08:29:25;96930.56;;;15.33
79756;BMP280;69239;50.678;12.280;2023-04-23T08:31:51;96938.00;;;15.24
79756;BMP280;69239;50.678;12.280;2023-04-23T08:34:16;96941.66;;;15.16
79756;BMP280;69239;50.678;12.280;2023-04-23T08:36:42;96947.22;;;15.07
79756;BMP280;69239;50.678;12.280;2023-04-23T08:39:07;96944.44;;;15.00
79756;BMP280;69239;50.678;12.280;2023-04-23T08:41:38;96943.78;;;15.07
79756;BMP280;69239;50.678;12.280;2023-04-23T08:44:16;96950.72;;;15.15
79756;BMP280;69239;50.678;12.280;2023-04-23T08:46:43;96941.72;;;15.19
79756;BMP280;69239;50.678;12.280;2023-04-23T08:49:13;96943.41;;;15.31
79756;BMP280;69239;50.678;12.280;2023-04-23T08:51:44;96954.97;;;15.42
79756;BMP280;69239;50.678;12.280;2023-04-23T08:54:14;96946.34;;;15.49
79756;BMP280;69239;50.678;12.280;2023-04-23T08:56:40;96953.69;;;15.59
79756;BMP280;69239;50.678;12.280;2023-04-23T08:59:06;96966.59;;;15.61
79756;BMP280;69239;50.678;12.280;2023-04-23T09:01:32;96966.44;;;15.50
79756;BMP280;69239;50.678;12.280;2023-04-23T09:03:59;96964.84;;;15.45
79756;BMP280;69239;50.678;12.280;2023-04-23T09:06:25;96964.59;;;15.28
79756;BMP280;69239;50.678;12.280;2023-04-23T09:08:50;96966.75;;;15.22
79756;BMP280;69239;50.678;12.280;2023-04-23T09:11:17;96968.16;;;15.16
79756;BMP280;69239;50.678;12.280;2023-04-23T09:13:43;96966.16;;;15.09
79756;BMP280;69239;50.678;12.280;2023-04-23T09:16:09;96977.78;;;15.01
79756;BMP280;69239;50.678;12.280;2023-04-23T09:18:34;96969.78;;;14.78
79756;BMP280;69239;50.678;12.280;2023-04-23T09:21:00;96978.69;;;14.70
79756;BMP280;69239;50.678;12.280;2023-04-23T09:23:28;96970.13;;;14.58
79756;BMP280;69239;50.678;12.280;2023-04-23T09:25:56;96973.81;;;14.53
79756;BMP280;69239;50.678;12.280;2023-04-23T09:28:33;96964.44;;;14.36
79756;BMP280;69239;50.678;12.280;2023-04-23T09:30:59;96973.03;;;14.33
79756;BMP280;69239;50.678;12.280;2023-04-23T09:33:27;96971.00;;;14.27
79756;BMP280;69239;50.678;12.280;2023-04-23T09:35:53;96972.97;;;14.30
79756;BMP280;69239;50.678;12.280;2023-04-23T09:38:19;96965.84;;;14.34
79756;BMP280;69239;50.678;12.280;2023-04-23T09:40:44;96950.97;;;14.45
79756;BMP280;69239;50.678;12.280;2023-04-23T09:43:10;96954.56;;;14.75
79756;BMP280;69239;50.678;12.280;2023-04-23T09:45:36;96951.06;;;15.13
79756;BMP280;69239;50.678;12.280;2023-04-23T09:48:02;96949.69;;;15.69
79756;BMP280;69239;50.678;12.280;2023-04-23T09:50:37;96939.34;;;16.20
79756;BMP280;69239;50.678;12.280;2023-04-23T09:53:04;96939.16;;;16.69
79756;BMP280;69239;50.678;12.280;2023-04-23T09:55:40;96909.72;;;16.92
79756;BMP280;69239;50.678;12.280;2023-04-23T09:58:12;96914.53;;;17.20
79756;BMP280;69239;50.678;12.280;2023-04-23T10:00:39;96914.34;;;17.46
79756;BMP280;69239;50.678;12.280;2023-04-23T10:03:05;96918.75;;;17.90
79756;BMP280;69239;50.678;12.280;2023-04-23T10:07:59;96922.41;;;18.65
79756;BMP280;69239;50.678;12.280;2023-04-23T10:10:25;96912.47;;;18.62
79756;BMP280;69239;50.678;12.280;2023-04-23T10:12:52;96918.63;;;18.87
79756;BMP280;69239;50.678;12.280;2023-04-23T10:15:19;96929.66;;;19.25
79756;BMP280;69239;50.678;12.280;2023-04-23T10:17:45;96930.69;;;19.66
79756;BMP280;69239;50.678;12.280;2023-04-23T10:20:11;96922.69;;;19.77
79756;BMP280;69239;50.678;12.280;2023-04-23T10:22:37;96913.03;;;20.01
79756;BMP280;69239;50.678;12.280;2023-04-23T10:25:08;96916.66;;;20.35
79756;BMP280;69239;50.678;12.280;2023-04-23T10:27:41;96916.06;;;20.69
79756;BMP280;69239;50.678;12.280;2023-04-23T10:30:09;96914.09;;;20.73
79756;BMP280;69239;50.678;12.280;2023-04-23T10:32:36;96897.41;;;20.58
79756;BMP280;69239;50.678;12.280;2023-04-23T10:35:01;96913.00;;;20.67
79756;BMP280;69239;50.678;12.280;2023-04-23T10:37:27;96899.31;;;20.61
79756;BMP280;69239;50.678;12.280;2023-04-23T10:39:54;96904.56;;;20.75
79756;BMP280;69239;50.678;12.280;2023-04-23T10:42:21;96898.28;;;20.96
79756;BMP280;69239;50.678;12.280;2023-04-23T10:44:47;96899.59;;;21.15
79756;BMP280;69239;50.678;12.280;2023-04-23T10:47:16;96901.19;;;21.09
79756;BMP280;69239;50.678;12.280;2023-04-23T10:49:42;96903.53;;;21.03
79756;BMP280;69239;50.678;12.280;2023-04-23T10:52:15;96899.06;;;20.93
79756;BMP280;69239;50.678;12.280;2023-04-23T10:54:42;96908.00;;;20.76
79756;BMP280;69239;50.678;12.280;2023-04-23T10:57:09;96902.00;;;20.58
79756;BMP280;69239;50.678;12.280;2023-04-23T10:59:38;96892.56;;;20.46
79756;BMP280;69239;50.678;12.280;2023-04-23T11:02:11;96897.16;;;20.38
79756;BMP280;69239;50.678;12.280;2023-04-23T11:04:55;96900.31;;;20.26
79756;BMP280;69239;50.678;12.280;2023-04-23T11:07:31;96898.81;;;20.18
79756;BMP280;69239;50.678;12.280;2023-04-23T11:10:10;96898.88;;;20.11
79756;BMP280;69239;50.678;12.280;2023-04-23T11:12:38;96906.91;;;20.07
79756;BMP280;69239;50.678;12.280;2023-04-23T11:15:14;96887.47;;;19.96
79756;BMP280;69239;50.678;12.280;2023-04-23T11:20:09;96893.09;;;20.16
79756;BMP280;69239;50.678;12.280;2023-04-23T11:22:36;96887.25;;;20.35
79756;BMP280;69239;50.678;12.280;2023-04-23T11:25:03;96890.66;;;20.39
79756;BMP280;69239;50.678;12.280;2023-04-23T11:27:30;96894.81;;;20.47
79756;BMP280;69239;50.678;12.280;2023-04-23T11:29:56;96890.22;;;20.51
79756;BMP280;69239;50.678;12.280;2023-04-23T11:32:22;96901.22;;;20.61
79756;BMP280;69239;50.678;12.280;2023-04-23T11:34:48;96887.91;;;20.54
79756;BMP280;69239;50.678;12.280;2023-04-23T11:37:16;96888.72;;;20.43
79756;BMP280;69239;50.678;12.280;2023-04-23T11:39:43;96868.91;;;20.37
79756;BMP280;69239;50.678;12.280;2023-04-23T11:42:16;96885.06;;;20.75
79756;BMP280;69239;50.678;12.280;2023-04-23T11:44:43;96884.22;;;21.22
79756;BMP280;69239;50.678;12.280;2023-04-23T11:47:10;96867.22;;;21.74
79756;BMP280;69239;50.678;12.280;2023-04-23T11:49:37;96864.47;;;22.31
79756;BMP280;69239;50.678;12.280;2023-04-23T11:52:03;96870.94;;;22.57
79756;BMP280;69239;50.678;12.280;2023-04-23T11:54:28;96863.66;;;22.57
79756;BMP280;69239;50.678;12.280;2023-04-23T11:56:55;96864.03;;;22.59
79756;BMP280;69239;50.678;12.280;2023-04-23T11:59:21;96857.38;;;22.44
79756;BMP280;69239;50.678;12.280;2023-04-23T12:01:50;96851.41;;;22.33
79756;BMP280;69239;50.678;12.280;2023-04-23T12:04:24;96842.31;;;22.50
79756;BMP280;69239;50.678;12.280;2023-04-23T12:06:52;96840.34;;;22.77
79756;BMP280;69239;50.678;12.280;2023-04-23T12:09:19;96844.94;;;22.97
79756;BMP280;69239;50.678;12.280;2023-04-23T12:11:45;96827.31;;;22.96
79756;BMP280;69239;50.678;12.280;2023-04-23T12:14:13;96836.41;;;23.02
79756;BMP280;69239;50.678;12.280;2023-04-23T12:16:39;96827.03;;;23.10
79756;BMP280;69239;50.678;12.280;2023-04-23T12:19:15;96831.47;;;23.20
79756;BMP280;69239;50.678;12.280;2023-04-23T12:21:59;96827.59;;;23.21
79756;BMP280;69239;50.678;12.280;2023-04-23T12:24:25;96833.13;;;23.14
79756;BMP280;69239;50.678;12.280;2023-04-23T12:26:55;96821.81;;;23.03
79756;BMP280;69239;50.678;12.280;2023-04-23T12:29:22;96812.31;;;23.18
79756;BMP280;69239;50.678;12.280;2023-04-23T12:31:49;96824.28;;;23.33
79756;BMP280;69239;50.678;12.280;2023-04-23T12:34:16;96815.53;;;23.49
79756;BMP280;69239;50.678;12.280;2023-04-23T12:36:51;96806.16;;;23.73
79756;BMP280;69239;50.678;12.280;2023-04-23T12:39:30;96802.53;;;23.80
79756;BMP280;69239;50.678;12.280;2023-04-23T12:42:01;96802.72;;;24.05
79756;BMP280;69239;50.678;12.280;2023-04-23T12:44:32;96796.63;;;24.33
79756;BMP280;69239;50.678;12.280;2023-04-23T12:47:02;96802.13;;;24.75
79756;BMP280;69239;50.678;12.280;2023-04-23T12:49:29;96802.50;;;25.02
79756;BMP280;69239;50.678;12.280;2023-04-23T12:51:56;96797.69;;;25.23
79756;BMP280;69239;50.678;12.280;2023-04-23T12:54:24;96790.56;;;25.41
79756;BMP280;69239;50.678;12.280;2023-04-23T12:56:50;96789.63;;;25.73
79756;BMP280;69239;50.678;12.280;2023-04-23T12:59:16;96789.63;;;25.73
79756;BMP280;69239;50.678;12.280;2023-04-23T13:01:41;96781.81;;;25.75
79756;BMP280;69239;50.678;12.280;2023-04-23T13:04:06;96777.00;;;25.58
79756;BMP280;69239;50.678;12.280;2023-04-23T13:06:32;96778.59;;;25.55
79756;BMP280;69239;50.678;12.280;2023-04-23T13:08:57;96773.00;;;25.24
79756;BMP280;69239;50.678;12.280;2023-04-23T13:11:26;96770.31;;;24.70
79756;BMP280;69239;50.678;12.280;2023-04-23T13:13:51;96769.44;;;24.44
79756;BMP280;69239;50.678;12.280;2023-04-23T13:16:17;96761.75;;;24.46
79756;BMP280;69239;50.678;12.280;2023-04-23T13:18:42;96762.44;;;24.63
79756;BMP280;69239;50.678;12.280;2023-04-23T13:21:08;96770.59;;;24.88
79756;BMP280;69239;50.678;12.280;2023-04-23T13:23:34;96753.38;;;24.98
79756;BMP280;69239;50.678;12.280;2023-04-23T13:26:02;96745.50;;;24.91
79756;BMP280;69239;50.678;12.280;2023-04-23T13:28:27;96752.66;;;24.69
79756;BMP280;69239;50.678;12.280;2023-04-23T13:30:52;96744.72;;;24.49
79756;BMP280;69239;50.678;12.280;2023-04-23T13:33:18;96746.72;;;24.33
79756;BMP280;69239;50.678;12.280;2023-04-23T13:35:45;96737.00;;;24.06
79756;BMP280;69239;50.678;12.280;2023-04-23T13:38:10;96738.03;;;23.80
79756;BMP280;69239;50.678;12.280;2023-04-23T13:40:36;96733.59;;;23.57
79756;BMP280;69239;50.678;12.280;2023-04-23T13:43:02;96732.03;;;23.40
79756;BMP280;69239;50.678;12.280;2023-04-23T13:45:27;96730.41;;;23.26
79756;BMP280;69239;50.678;12.280;2023-04-23T13:47:53;96724.78;;;23.21
79756;BMP280;69239;50.678;12.280;2023-04-23T13:50:18;96720.53;;;23.23
79756;BMP280;69239;50.678;12.280;2023-04-23T13:52:44;96708.69;;;23.21
79756;BMP280;69239;50.678;12.280;2023-04-23T13:55:09;96715.78;;;23.11
79756;BMP280;69239;50.678;12.280;2023-04-23T13:57:35;96716.22;;;22.90